createdAt,value
2023-02-01T06:32:25.237Z,4.56
2023-02-01T06:33:00.791Z,4.59
2023-02-01T06:33:39.782Z,4.60
2023-02-01T06:34:12.208Z,4.60
2023-02-01T06:34:44.739Z,4.61
2023-02-01T06:35:17.667Z,4.62
2023-02-01T06:35:59.207Z,4.64
2023-02-01T06:36:31.613Z,4.66
2023-02-01T06:37:04.030Z,4.67
2023-02-01T06:37:38.242Z,4.67
2023-02-01T06:38:11.704Z,4.67
2023-02-01T06:38:44.063Z,4.68
2023-02-01T06:39:17.414Z,4.68
2023-02-01T06:39:53.013Z,4.70
2023-02-01T06:40:25.642Z,4.70
2023-02-01T06:40:59.167Z,4.71
2023-02-01T06:41:31.511Z,4.72
2023-02-01T06:42:04.681Z,4.72
2023-02-01T06:42:37.019Z,4.73
2023-02-01T06:43:09.378Z,4.73
2023-02-01T06:43:41.807Z,4.74
2023-02-01T06:44:14.243Z,4.74
2023-02-01T06:44:52.015Z,4.75
2023-02-01T06:45:24.291Z,4.76
2023-02-01T06:46:05.298Z,4.78
2023-02-01T06:46:37.780Z,4.80
2023-02-01T06:47:10.171Z,4.80
2023-02-01T06:47:45.666Z,4.80
2023-02-01T06:48:18.549Z,4.81
2023-02-01T06:48:53.702Z,4.82
2023-02-01T06:49:26.143Z,4.83
2023-02-01T06:49:58.436Z,4.83
2023-02-01T06:50:30.712Z,4.84
2023-02-01T06:51:03.123Z,4.86
2023-02-01T06:51:39.075Z,4.86
2023-02-01T06:52:11.472Z,4.87
2023-02-01T06:52:43.944Z,4.87
2023-02-01T06:53:16.463Z,4.88
2023-02-01T06:53:48.911Z,4.89
2023-02-01T06:54:24.007Z,4.91
2023-02-01T06:54:56.925Z,4.92
2023-02-01T06:55:29.276Z,4.93
2023-02-01T06:56:06.402Z,4.94
2023-02-01T06:56:40.350Z,4.95
2023-02-01T06:57:12.801Z,4.97
2023-02-01T06:57:45.267Z,4.99
2023-02-01T06:58:17.644Z,5.00
2023-02-01T06:58:50.803Z,5.02
2023-02-01T06:59:26.208Z,5.04
2023-02-01T06:59:59.952Z,5.05
2023-02-01T07:00:32.535Z,5.05
2023-02-01T07:01:09.793Z,5.07
2023-02-01T07:01:42.194Z,5.07
2023-02-01T07:02:14.711Z,5.07
2023-02-01T07:02:47.003Z,5.08
2023-02-01T07:03:19.314Z,5.09
2023-02-01T07:03:52.419Z,5.11
2023-02-01T07:04:24.772Z,5.13
2023-02-01T07:04:57.177Z,5.15
2023-02-01T07:05:29.591Z,5.18
2023-02-01T07:06:02.073Z,5.25
2023-02-01T07:06:34.524Z,5.31
2023-02-01T07:07:06.855Z,5.37
2023-02-01T07:07:39.191Z,5.40
2023-02-01T07:08:11.562Z,5.45
2023-02-01T07:08:44.828Z,5.55
2023-02-01T07:09:19.318Z,5.70
2023-02-01T07:09:52.008Z,5.81
2023-02-01T07:10:24.643Z,5.86
2023-02-01T07:10:57.543Z,5.97
2023-02-01T07:11:30.047Z,6.30
2023-02-01T07:12:02.434Z,6.48
2023-02-01T07:12:34.831Z,6.62
2023-02-01T07:13:16.575Z,6.78
2023-02-01T07:13:49.217Z,6.95
2023-02-01T07:14:21.552Z,7.01
2023-02-01T07:14:53.897Z,7.16
2023-02-01T07:15:27.378Z,7.26
2023-02-01T07:16:05.329Z,7.34
2023-02-01T07:16:38.418Z,7.50
2023-02-01T07:17:10.798Z,7.66
2023-02-01T07:17:43.290Z,7.82
2023-02-01T07:18:18.203Z,7.98
2023-02-01T07:18:52.449Z,8.17
2023-02-01T07:19:37.040Z,8.35
2023-02-01T07:20:12.539Z,8.50
2023-02-01T07:20:51.376Z,8.63
2023-02-01T07:21:23.780Z,8.72
2023-02-01T07:21:56.090Z,8.78
2023-02-01T07:22:28.979Z,8.84
2023-02-01T07:23:05.964Z,8.86
2023-02-01T07:23:39.396Z,8.96
2023-02-01T07:24:13.300Z,9.07
2023-02-01T07:24:45.965Z,9.25
2023-02-01T07:25:18.326Z,9.46
2023-02-01T07:26:00.629Z,9.53
2023-02-01T07:26:33.471Z,9.54
2023-02-01T07:27:07.713Z,9.60
2023-02-01T07:27:43.640Z,9.64
2023-02-01T07:28:18.341Z,9.64
2023-02-01T07:28:53.144Z,9.70
2023-02-01T07:29:25.465Z,9.93
2023-02-01T07:30:03.253Z,10.04
2023-02-01T07:30:35.707Z,10.09
2023-02-01T07:31:12.363Z,10.10
2023-02-01T07:31:46.624Z,10.11
2023-02-01T07:32:19.186Z,10.19
2023-02-01T07:32:54.493Z,10.30
2023-02-01T07:33:29.010Z,10.36
2023-02-01T07:34:01.894Z,10.36
2023-02-01T07:34:34.967Z,10.40
2023-02-01T07:35:07.782Z,10.48
2023-02-01T07:35:40.135Z,10.59
2023-02-01T07:36:16.247Z,10.65
2023-02-01T07:36:48.650Z,10.66
2023-02-01T07:37:21.149Z,10.69
2023-02-01T07:37:53.559Z,10.71
2023-02-01T07:38:25.934Z,10.70
2023-02-01T07:38:58.817Z,10.72
2023-02-01T07:39:32.979Z,10.73
2023-02-01T07:40:06.331Z,10.72
2023-02-01T07:40:38.699Z,10.72
2023-02-01T07:41:11.647Z,10.73
2023-02-01T07:41:43.966Z,10.77
2023-02-01T07:42:16.263Z,10.84
2023-02-01T07:42:49.962Z,10.89
2023-02-01T07:43:22.325Z,10.90
2023-02-01T07:43:56.627Z,10.87
2023-02-01T07:44:29.037Z,10.87
2023-02-01T07:45:14.676Z,10.88
2023-02-01T07:45:53.764Z,10.87
2023-02-01T07:46:26.117Z,10.84
2023-02-01T07:46:58.539Z,10.80
2023-02-01T07:47:30.844Z,10.79
2023-02-01T07:48:03.668Z,10.82
2023-02-01T07:48:36.116Z,10.86
2023-02-01T07:49:08.625Z,10.88
2023-02-01T07:49:40.942Z,10.91
2023-02-01T07:50:13.430Z,10.97
2023-02-01T07:50:54.663Z,11.01
2023-02-01T07:51:28.127Z,11.01
2023-02-01T07:52:00.465Z,11.00
2023-02-01T07:52:32.888Z,11.02
2023-02-01T07:53:05.286Z,11.03
2023-02-01T07:53:37.761Z,11.04
2023-02-01T07:54:13.800Z,11.05
2023-02-01T07:54:49.106Z,11.05
2023-02-01T07:55:21.978Z,11.05
2023-02-01T07:55:54.458Z,11.09
2023-02-01T07:56:27.917Z,11.15
2023-02-01T07:57:00.424Z,11.15
2023-02-01T07:57:41.704Z,11.17
2023-02-01T07:58:14.034Z,11.17
2023-02-01T07:58:55.758Z,11.18
2023-02-01T07:59:28.066Z,11.16
2023-02-01T08:00:18.746Z,11.16
2023-02-01T08:01:10.304Z,11.18
2023-02-01T08:01:42.737Z,11.16
2023-02-01T08:02:15.210Z,11.17
2023-02-01T08:02:47.588Z,11.21
2023-02-01T08:03:20.131Z,11.31
2023-02-01T08:03:59.995Z,11.35
2023-02-01T08:04:32.379Z,11.43
2023-02-01T08:05:10.926Z,11.47
2023-02-01T08:05:43.512Z,11.51
2023-02-01T08:06:16.240Z,11.52
2023-02-01T08:06:48.496Z,11.54
2023-02-01T08:07:22.832Z,11.57
2023-02-01T08:07:55.157Z,11.59
2023-02-01T08:08:29.958Z,11.60
2023-02-01T08:09:06.361Z,11.61
2023-02-01T08:10:26.052Z,11.64
2023-02-01T08:11:02.245Z,11.65
2023-02-01T08:11:38.555Z,11.66
2023-02-01T08:12:11.256Z,11.67
2023-02-01T08:12:43.851Z,11.68
2023-02-01T08:13:16.670Z,11.68
2023-02-01T08:13:49.538Z,11.70
2023-02-01T08:14:21.922Z,11.74
2023-02-01T08:14:54.834Z,11.77
2023-02-01T08:15:28.397Z,11.80
2023-02-01T08:16:14.336Z,11.81
2023-02-01T08:16:47.653Z,11.81
2023-02-01T08:17:20.801Z,11.80
2023-02-01T08:17:53.425Z,11.80
2023-02-01T08:18:25.936Z,11.80
2023-02-01T08:18:58.537Z,11.79
2023-02-01T08:19:30.987Z,11.79
2023-02-01T08:20:03.472Z,11.81
2023-02-01T08:20:37.176Z,11.81
2023-02-01T08:21:26.779Z,11.81
2023-02-01T08:22:00.404Z,11.82
2023-02-01T08:22:34.082Z,11.81
2023-02-01T08:23:57.877Z,11.76
2023-02-01T08:24:30.786Z,11.72
2023-02-01T08:25:44.873Z,11.59
2023-02-01T08:26:27.219Z,11.58
2023-02-01T08:26:59.726Z,11.58
2023-02-01T08:27:34.532Z,11.58
2023-02-01T08:28:08.098Z,11.57
2023-02-01T08:28:42.421Z,11.57
2023-02-01T08:29:14.994Z,11.56
2023-02-01T08:29:49.640Z,11.54
2023-02-01T08:30:23.287Z,11.51
2023-02-01T08:30:55.788Z,11.50
2023-02-01T08:31:30.211Z,11.49
2023-02-01T08:32:02.617Z,11.40
2023-02-01T08:32:36.575Z,11.34
2023-02-01T08:33:09.870Z,11.30
2023-02-01T08:33:44.002Z,11.26
2023-02-01T08:34:16.372Z,11.22
2023-02-01T08:34:48.742Z,11.21
2023-02-01T08:35:23.659Z,11.20
2023-02-01T08:35:56.105Z,11.18
2023-02-01T08:36:30.675Z,11.15
2023-02-01T08:37:03.087Z,11.06
2023-02-01T08:37:35.429Z,11.02
2023-02-01T08:38:07.711Z,11.01
2023-02-01T08:38:41.282Z,11.00
2023-02-01T08:39:13.606Z,10.98
2023-02-01T08:39:47.734Z,10.97
2023-02-01T08:40:20.397Z,10.97
2023-02-01T08:40:56.365Z,11.00
2023-02-01T08:41:30.712Z,11.03
2023-02-01T08:42:21.791Z,11.03
2023-02-01T08:42:55.025Z,11.02
2023-02-01T08:43:29.829Z,11.04
2023-02-01T08:44:02.553Z,11.03
2023-02-01T08:44:38.006Z,11.03
2023-02-01T08:45:10.916Z,11.03
2023-02-01T08:45:43.352Z,11.03
2023-02-01T08:47:54.325Z,11.10
2023-02-01T08:48:26.631Z,11.13
2023-02-01T08:48:59.111Z,11.14
2023-02-01T08:49:31.527Z,11.15
2023-02-01T08:50:04.225Z,11.15
2023-02-01T08:50:36.544Z,11.16
2023-02-01T08:51:11.635Z,11.18
2023-02-01T08:51:43.998Z,11.22
2023-02-01T08:52:16.499Z,11.22
2023-02-01T08:52:48.925Z,11.24
2023-02-01T08:53:21.365Z,11.27
2023-02-01T08:53:53.734Z,11.28
2023-02-01T08:54:26.084Z,11.31
2023-02-01T08:54:58.487Z,11.31
2023-02-01T08:55:30.892Z,11.30
2023-02-01T08:56:03.797Z,11.30
2023-02-01T08:56:36.151Z,11.30
2023-02-01T08:57:14.653Z,11.29
2023-02-01T08:57:47.102Z,11.18
2023-02-01T08:58:20.535Z,11.02
2023-02-01T08:58:52.864Z,10.98
2023-02-01T08:59:28.070Z,10.98
2023-02-01T09:00:03.074Z,10.99
2023-02-01T09:00:35.432Z,10.99
2023-02-01T09:01:11.628Z,10.99
2023-02-01T09:01:43.940Z,10.98
2023-02-01T09:02:17.834Z,10.94
2023-02-01T09:02:50.215Z,10.91
2023-02-01T09:03:22.573Z,10.87
2023-02-01T09:03:55.247Z,10.85
2023-02-01T09:04:27.621Z,10.85
2023-02-01T09:05:02.835Z,10.86
2023-02-01T09:05:48.510Z,10.84
2023-02-01T09:06:21.636Z,10.83
2023-02-01T09:06:56.518Z,10.84
2023-02-01T09:07:28.786Z,10.84
2023-02-01T09:08:01.070Z,10.85
2023-02-01T09:08:34.394Z,10.86
2023-02-01T09:09:06.737Z,10.87
2023-02-01T09:09:39.617Z,10.88
2023-02-01T09:10:12.610Z,10.87
2023-02-01T09:10:45.033Z,10.85
2023-02-01T09:11:20.537Z,10.81
2023-02-01T09:11:52.882Z,10.81
2023-02-01T09:12:25.975Z,10.82
2023-02-01T09:13:01.846Z,10.82
2023-02-01T09:13:37.572Z,10.86
2023-02-01T09:14:09.923Z,10.90
2023-02-01T09:14:42.472Z,10.92
2023-02-01T09:15:15.077Z,10.96
2023-02-01T09:15:51.638Z,10.99
2023-02-01T09:16:24.026Z,11.04
2023-02-01T09:16:56.358Z,11.09
2023-02-01T09:17:30.828Z,11.10
2023-02-01T09:18:06.221Z,11.11
2023-02-01T09:18:46.093Z,11.14
2023-02-01T09:19:28.825Z,11.23
2023-02-01T09:20:02.599Z,11.27
2023-02-01T09:20:35.223Z,11.29
2023-02-01T09:21:10.557Z,11.31
2023-02-01T09:21:43.155Z,11.32
2023-02-01T09:22:17.074Z,11.36
2023-02-01T09:22:49.385Z,11.36
2023-02-01T09:23:21.751Z,11.35
2023-02-01T09:23:54.253Z,11.37
2023-02-01T09:24:26.724Z,11.39
2023-02-01T09:24:59.042Z,11.41
2023-02-01T09:25:31.418Z,11.44
2023-02-01T09:26:05.480Z,11.52
2023-02-01T09:26:38.496Z,11.61
2023-02-01T09:27:11.348Z,11.74
2023-02-01T09:27:43.704Z,11.93
2023-02-01T09:28:16.244Z,12.28
2023-02-01T09:28:55.919Z,12.74
2023-02-01T09:29:28.355Z,13.17
2023-02-01T09:30:01.257Z,13.30
2023-02-01T09:30:35.224Z,13.50
2023-02-01T09:31:12.178Z,13.74
2023-02-01T09:31:57.441Z,14.04
2023-02-01T09:32:43.582Z,14.63
2023-02-01T09:33:15.974Z,14.91
2023-02-01T09:33:49.649Z,15.11
2023-02-01T09:34:22.203Z,15.38
2023-02-01T09:34:55.666Z,15.64
2023-02-01T09:35:28.114Z,15.70
2023-02-01T09:36:05.942Z,15.89
2023-02-01T09:36:47.233Z,16.08
2023-02-01T09:37:20.396Z,16.26
2023-02-01T09:37:54.216Z,16.29
2023-02-01T09:38:28.368Z,16.26
2023-02-01T09:39:04.708Z,16.29
2023-02-01T09:39:36.996Z,16.29
2023-02-01T09:40:17.785Z,16.28
2023-02-01T09:40:50.029Z,16.36
2023-02-01T09:41:49.230Z,16.59
2023-02-01T09:42:46.866Z,17.19
2023-02-01T09:43:41.298Z,17.18
2023-02-01T09:44:44.068Z,17.35
2023-02-01T09:45:40.001Z,17.52
2023-02-01T09:46:29.108Z,17.53
2023-02-01T09:47:01.809Z,17.55
2023-02-01T09:47:38.131Z,17.57
2023-02-01T09:48:21.452Z,17.59
2023-02-01T09:48:56.609Z,17.61
2023-02-01T09:49:47.373Z,17.62
2023-02-01T09:50:38.420Z,17.62
2023-02-01T09:51:31.942Z,17.59
2023-02-01T09:52:18.318Z,17.56
2023-02-01T09:53:11.898Z,17.59
2023-02-01T09:53:54.325Z,17.52
2023-02-01T09:55:04.591Z,17.44
2023-02-01T09:56:08.551Z,17.41
2023-02-01T09:57:00.000Z,17.39
2023-02-01T09:57:51.607Z,17.35
2023-02-01T09:58:31.765Z,17.35
2023-02-01T09:59:33.039Z,17.31
2023-02-01T10:00:16.449Z,17.31
2023-02-01T10:01:21.083Z,17.25
2023-02-01T10:01:54.428Z,16.86
2023-02-01T10:02:29.709Z,16.66
2023-02-01T10:03:02.160Z,16.61
2023-02-01T10:03:36.686Z,16.57
2023-02-01T10:04:14.284Z,16.51
2023-02-01T10:04:48.921Z,16.43
2023-02-01T10:05:46.139Z,16.34
2023-02-01T10:06:37.290Z,16.14
2023-02-01T10:07:24.651Z,15.89
2023-02-01T10:07:57.180Z,15.35
2023-02-01T10:10:19.731Z,14.40
2023-02-01T10:11:14.345Z,13.80
2023-02-01T10:12:31.869Z,13.36
2023-02-01T10:13:30.362Z,12.89
2023-02-01T10:14:17.863Z,12.55
2023-02-01T10:15:14.374Z,12.28
2023-02-01T10:15:50.256Z,12.11
2023-02-01T10:16:25.702Z,12.02
2023-02-01T10:17:25.802Z,11.79
2023-02-01T10:18:24.543Z,11.56
2023-02-01T10:19:32.034Z,11.47
2023-02-01T10:20:07.169Z,11.28
2023-02-01T10:21:03.774Z,11.21
2023-02-01T10:22:00.527Z,11.12
2023-02-01T10:23:13.400Z,11.05
2023-02-01T10:24:18.098Z,10.99
2023-02-01T10:25:16.967Z,10.93
2023-02-01T10:26:23.313Z,10.88
2023-02-01T10:27:08.817Z,10.83
2023-02-01T10:27:42.615Z,10.80
2023-02-01T10:28:18.423Z,10.77
2023-02-01T10:28:54.553Z,10.74
2023-02-01T10:29:36.147Z,10.70
2023-02-01T10:30:14.676Z,10.65
2023-02-01T10:30:49.133Z,10.60
2023-02-01T10:31:25.988Z,10.57
2023-02-01T10:31:58.671Z,10.56
2023-02-01T10:32:35.665Z,10.56
2023-02-01T10:33:18.426Z,10.55
2023-02-01T10:33:56.723Z,10.54
2023-02-01T10:34:37.407Z,10.53
2023-02-01T10:35:18.744Z,10.52
2023-02-01T10:35:59.604Z,10.49
2023-02-01T10:37:02.621Z,10.48
2023-02-01T10:37:36.862Z,10.48
2023-02-01T10:40:24.226Z,10.53
2023-02-01T10:45:21.968Z,10.67
2023-02-01T10:45:54.472Z,10.69
2023-02-01T10:46:27.823Z,10.71
2023-02-01T10:47:00.201Z,10.73
2023-02-01T10:47:32.568Z,10.75
2023-02-01T10:48:05.567Z,10.75
2023-02-01T10:48:38.982Z,10.76
2023-02-01T10:49:30.902Z,10.77
2023-02-01T10:50:16.827Z,10.81
2023-02-01T10:50:59.821Z,10.88
2023-02-01T10:51:45.092Z,10.99
2023-02-01T10:52:25.852Z,11.07
2023-02-01T10:53:21.078Z,11.26
2023-02-01T10:54:17.316Z,11.71
2023-02-01T10:54:49.735Z,12.04
2023-02-01T10:55:32.798Z,12.19
2023-02-01T10:56:15.001Z,12.29
2023-02-01T10:56:48.069Z,12.31
2023-02-01T10:57:25.842Z,12.35
2023-02-01T10:58:00.817Z,12.40
2023-02-01T10:58:45.927Z,12.54
2023-02-01T10:59:26.187Z,12.65
2023-02-01T10:59:58.622Z,12.71
2023-02-01T11:01:04.999Z,12.75
2023-02-01T11:01:49.775Z,12.84
2023-02-01T11:02:33.206Z,12.84
2023-02-01T11:03:39.792Z,12.84
2023-02-01T11:04:18.809Z,12.93
2023-02-01T11:04:51.947Z,12.96
2023-02-01T11:05:26.110Z,12.99
2023-02-01T11:05:58.584Z,13.02
2023-02-01T11:06:43.512Z,13.03
2023-02-01T11:07:25.791Z,13.06
2023-02-01T11:08:00.517Z,13.10
2023-02-01T11:08:33.017Z,13.14
2023-02-01T11:09:28.619Z,13.16
2023-02-01T11:10:01.037Z,13.18
2023-02-01T11:10:42.735Z,13.18
2023-02-01T11:11:15.364Z,13.15
2023-02-01T11:11:47.693Z,13.13
2023-02-01T11:12:32.798Z,13.12
2023-02-01T11:13:06.787Z,13.13
2023-02-01T11:13:41.218Z,13.15
2023-02-01T11:14:19.358Z,13.14
2023-02-01T11:14:51.740Z,13.13
2023-02-01T11:15:27.895Z,13.12
2023-02-01T11:16:03.555Z,13.09
2023-02-01T11:16:39.315Z,13.01
2023-02-01T11:17:39.706Z,12.96
2023-02-01T11:18:21.792Z,12.90
2023-02-01T11:18:56.427Z,12.84
2023-02-01T11:19:29.712Z,12.78
2023-02-01T11:20:13.499Z,12.72
2023-02-01T11:20:52.999Z,12.65
2023-02-01T11:21:25.595Z,12.56
2023-02-01T11:22:03.583Z,12.50
2023-02-01T11:22:35.963Z,12.44
2023-02-01T11:23:24.181Z,12.39
2023-02-01T11:24:02.605Z,12.31
2023-02-01T11:24:37.187Z,12.26
2023-02-01T11:25:12.088Z,12.19
2023-02-01T11:26:08.948Z,12.13
2023-02-01T11:26:42.663Z,12.08
2023-02-01T11:27:27.673Z,12.04
2023-02-01T11:28:00.591Z,11.95
2023-02-01T11:28:35.735Z,11.90
2023-02-01T11:29:15.553Z,11.85
2023-02-01T11:29:52.785Z,11.82
2023-02-01T11:30:38.667Z,11.78
2023-02-01T11:31:14.858Z,11.73
2023-02-01T11:31:47.490Z,11.72
2023-02-01T11:32:23.192Z,11.71
2023-02-01T11:32:55.768Z,11.70
2023-02-01T11:33:35.020Z,11.71
2023-02-01T11:34:15.482Z,11.73
2023-02-01T11:34:53.088Z,11.72
2023-02-01T11:35:25.924Z,11.71
2023-02-01T11:35:59.807Z,11.69
2023-02-01T11:36:36.830Z,11.69
2023-02-01T11:37:30.400Z,11.68
2023-02-01T11:38:22.137Z,11.66
2023-02-01T11:39:16.277Z,11.66
2023-02-01T11:39:58.993Z,11.65
2023-02-01T11:40:40.698Z,11.64
2023-02-01T11:41:24.537Z,11.59
2023-02-01T11:41:59.817Z,11.56
2023-02-01T11:42:35.153Z,11.53
2023-02-01T11:43:26.051Z,11.50
2023-02-01T11:44:01.083Z,11.48
2023-02-01T11:44:39.457Z,11.48
2023-02-01T11:45:42.362Z,11.49
2023-02-01T11:48:21.555Z,11.55
2023-02-01T11:49:20.365Z,11.58
2023-02-01T11:50:00.495Z,11.59
2023-02-01T11:50:46.819Z,11.58
2023-02-01T11:51:37.627Z,11.57
2023-02-01T11:52:31.463Z,11.53
2023-02-01T11:53:40.785Z,11.51
2023-02-01T11:54:31.574Z,11.48
2023-02-01T11:55:43.993Z,11.40
2023-02-01T11:56:37.043Z,11.29
2023-02-01T11:57:10.519Z,11.14
2023-02-01T11:58:13.342Z,11.08
2023-02-01T11:58:58.515Z,11.05
2023-02-01T12:00:09.641Z,11.00
2023-02-01T12:01:09.732Z,10.92
2023-02-01T12:02:13.245Z,10.84
2023-02-01T12:02:48.114Z,10.76
2023-02-01T12:03:37.089Z,10.71
2023-02-01T12:04:52.698Z,10.65
2023-02-01T12:06:00.091Z,10.59
2023-02-01T12:06:43.160Z,10.41
2023-02-01T12:07:42.618Z,10.30
2023-02-01T12:08:32.186Z,10.21
2023-02-01T12:09:36.618Z,10.15
2023-02-01T12:10:25.846Z,10.08
2023-02-01T12:11:16.012Z,10.05
2023-02-01T12:12:04.448Z,9.99
2023-02-01T12:12:54.669Z,9.91
2023-02-01T12:13:45.044Z,9.86
2023-02-01T12:14:44.567Z,9.81
2023-02-01T12:15:48.303Z,9.70
2023-02-01T12:16:51.285Z,9.59
2023-02-01T12:17:44.485Z,9.54
2023-02-01T12:18:38.238Z,9.49
2023-02-01T12:19:31.900Z,9.45
2023-02-01T12:20:58.327Z,9.42
2023-02-01T12:21:46.836Z,9.39
2023-02-01T12:22:26.295Z,9.36
2023-02-01T12:23:07.872Z,9.33
2023-02-01T12:24:12.722Z,9.30
2023-02-01T12:25:16.230Z,9.25
2023-02-01T12:26:06.607Z,9.23
2023-02-01T12:27:18.533Z,9.22
2023-02-01T12:28:08.509Z,9.19
2023-02-01T12:29:12.177Z,9.16
2023-02-01T12:30:05.578Z,9.15
2023-02-01T12:30:59.730Z,9.13
2023-02-01T12:32:06.366Z,9.10
2023-02-01T12:32:52.641Z,9.07
2023-02-01T12:33:53.926Z,9.06
2023-02-01T12:34:56.860Z,9.02
2023-02-01T12:36:06.900Z,8.99
2023-02-01T12:36:51.326Z,8.99
2023-02-01T12:38:04.478Z,8.99
2023-02-01T12:38:58.422Z,8.95
2023-02-01T12:39:48.897Z,8.93
2023-02-01T12:40:35.770Z,8.88
2023-02-01T12:41:11.453Z,8.83
2023-02-01T12:41:55.452Z,8.81
2023-02-01T12:42:38.625Z,8.77
2023-02-01T12:43:22.817Z,8.74
2023-02-01T12:44:01.007Z,8.72
2023-02-01T12:44:51.452Z,8.72
2023-02-01T12:45:35.248Z,8.70
2023-02-01T12:46:34.163Z,8.69
2023-02-01T12:47:18.052Z,8.68
2023-02-01T12:48:00.876Z,8.64
2023-02-01T12:48:39.729Z,8.62
2023-02-01T12:49:17.873Z,8.61
2023-02-01T12:49:58.626Z,8.61
2023-02-01T12:50:54.768Z,8.61
2023-02-01T12:51:38.608Z,8.58
2023-02-01T12:52:21.112Z,8.56
2023-02-01T12:52:58.055Z,8.53
2023-02-01T12:53:46.944Z,8.51
2023-02-01T12:54:46.769Z,8.51
2023-02-01T12:55:36.540Z,8.49
2023-02-01T12:56:27.987Z,8.46
2023-02-01T12:57:10.091Z,8.39
2023-02-01T12:57:48.667Z,8.33
2023-02-01T12:58:45.350Z,8.28
2023-02-01T12:59:43.429Z,8.21
2023-02-01T13:00:33.858Z,8.10
2023-02-01T13:01:24.783Z,8.03
2023-02-01T13:02:22.987Z,7.94
2023-02-01T13:03:05.256Z,7.81
2023-02-01T13:04:32.896Z,7.73
2023-02-01T13:05:16.798Z,7.54
2023-02-01T13:06:00.178Z,7.40
2023-02-01T13:06:39.687Z,7.22
2023-02-01T13:07:29.077Z,7.09
2023-02-01T13:08:08.871Z,7.05
2023-02-01T13:08:53.705Z,7.00
2023-02-01T13:09:34.108Z,6.97
2023-02-01T13:10:33.895Z,6.92
2023-02-01T13:11:15.088Z,6.86
2023-02-01T13:11:50.873Z,6.81
2023-02-01T13:12:39.491Z,6.78
2023-02-01T13:13:39.965Z,6.73
2023-02-01T13:14:42.079Z,6.67
2023-02-01T13:15:42.498Z,6.62
2023-02-01T13:16:45.993Z,6.56
2023-02-01T13:17:26.067Z,6.50
2023-02-01T13:18:17.314Z,6.46
2023-02-01T13:18:55.274Z,6.41
2023-02-01T13:19:50.343Z,6.40
2023-02-01T13:20:56.460Z,6.38
2023-02-01T13:21:35.221Z,6.36
2023-02-01T13:22:13.755Z,6.34
2023-02-01T13:22:55.786Z,6.33
2023-02-01T13:23:35.808Z,6.32
2023-02-01T13:24:39.461Z,6.31
2023-02-01T13:25:14.069Z,6.28
2023-02-01T13:25:51.700Z,6.28
2023-02-01T13:26:24.031Z,6.28
2023-02-01T13:26:56.891Z,6.28
2023-02-01T13:27:31.464Z,6.27
2023-02-01T13:28:33.755Z,6.27
2023-02-01T13:29:12.071Z,6.26
2023-02-01T13:30:09.274Z,6.28
2023-02-01T13:31:03.416Z,6.32
2023-02-01T13:32:07.774Z,6.34
2023-02-01T13:33:52.256Z,6.35
2023-02-01T13:34:28.025Z,6.37
2023-02-01T13:35:30.608Z,6.39
2023-02-01T13:36:37.184Z,6.41
2023-02-01T13:37:46.616Z,6.42
2023-02-01T13:38:56.047Z,6.42
2023-02-01T13:39:55.083Z,6.43
2023-02-01T13:41:02.432Z,6.41
2023-02-01T13:41:51.354Z,6.42
2023-02-01T13:42:34.376Z,6.41
2023-02-01T13:43:22.265Z,6.39
2023-02-01T13:44:13.952Z,6.38
2023-02-01T13:44:58.717Z,6.34
2023-02-01T13:45:35.815Z,6.32
2023-02-01T13:46:10.631Z,6.30
2023-02-01T13:46:46.526Z,6.28
2023-02-01T13:47:34.560Z,6.26
2023-02-01T13:48:15.569Z,6.26
2023-02-01T13:48:58.528Z,6.25
2023-02-01T13:49:39.992Z,6.24
2023-02-01T13:50:29.784Z,6.24
2023-02-01T13:51:02.943Z,6.23
2023-02-01T13:51:42.029Z,6.22
2023-02-01T13:52:30.027Z,6.20
2023-02-01T13:53:27.776Z,6.19
2023-02-01T13:54:00.545Z,6.17
2023-02-01T13:54:37.431Z,6.16
2023-02-01T13:55:27.513Z,6.16
2023-02-01T13:56:09.978Z,6.16
2023-02-01T13:56:44.782Z,6.16
2023-02-01T13:57:41.664Z,6.16
2023-02-01T13:58:16.465Z,6.16
2023-02-01T13:58:49.752Z,6.18
2023-02-01T13:59:40.443Z,6.18
2023-02-01T14:00:41.887Z,6.18
2023-02-01T14:01:23.021Z,6.18
2023-02-01T14:01:55.350Z,6.25
2023-02-01T14:02:39.416Z,6.39
2023-02-01T14:03:20.241Z,6.45
2023-02-01T14:03:55.382Z,6.46
2023-02-01T14:04:49.985Z,6.46
2023-02-01T14:05:25.483Z,6.45
2023-02-01T14:06:01.292Z,6.47
2023-02-01T14:06:36.523Z,6.49
2023-02-01T14:07:20.310Z,6.50
2023-02-01T14:08:07.711Z,6.50
2023-02-01T14:09:09.253Z,6.49
2023-02-01T14:09:41.671Z,6.48
2023-02-01T14:10:55.154Z,6.48
2023-02-01T14:11:36.829Z,6.48
2023-02-01T14:12:48.500Z,6.48
2023-02-01T14:13:36.966Z,6.46
2023-02-01T14:14:18.121Z,6.45
2023-02-01T14:14:50.512Z,6.43
2023-02-01T14:15:23.979Z,6.42
2023-02-01T14:16:05.461Z,6.42
2023-02-01T14:16:39.992Z,6.44
2023-02-01T14:17:12.239Z,6.43
2023-02-01T14:17:47.193Z,6.42
2023-02-01T14:18:54.564Z,6.39
2023-02-01T14:23:16.827Z,6.34
2023-02-01T14:23:58.950Z,6.33
2023-02-01T14:24:39.752Z,6.32
2023-02-01T14:25:24.956Z,6.32
2023-02-01T14:26:06.078Z,6.31
2023-02-01T14:26:38.430Z,6.31
2023-02-01T14:27:13.455Z,6.30
2023-02-01T14:27:45.960Z,6.30
2023-02-01T14:28:30.673Z,6.30
2023-02-01T14:29:12.739Z,6.29
2023-02-01T14:30:00.615Z,6.29
2023-02-01T14:30:33.188Z,6.30
2023-02-01T14:31:25.988Z,6.31
2023-02-01T14:32:22.529Z,6.28
2023-02-01T14:32:54.953Z,6.26
2023-02-01T14:33:29.379Z,6.26
2023-02-01T14:34:15.711Z,6.25
2023-02-01T14:34:48.012Z,6.25
2023-02-01T14:35:26.355Z,6.25
2023-02-01T14:36:07.643Z,6.25
2023-02-01T14:36:45.183Z,6.26
2023-02-01T14:37:17.475Z,6.26
2023-02-01T14:37:59.673Z,6.25
2023-02-01T14:38:33.771Z,6.25
2023-02-01T14:39:06.150Z,6.25
2023-02-01T14:39:58.154Z,6.25
2023-02-01T14:40:31.966Z,6.25
2023-02-01T14:41:34.379Z,6.25
2023-02-01T14:42:33.341Z,6.24
2023-02-01T14:43:05.733Z,6.25
2023-02-01T14:43:52.457Z,6.27
2023-02-01T14:44:30.945Z,6.28
2023-02-01T14:45:21.300Z,6.28
2023-02-01T14:45:53.966Z,6.29
2023-02-01T14:47:06.320Z,6.28
2023-02-01T14:47:44.851Z,6.27
2023-02-01T14:48:19.302Z,6.27
2023-02-01T14:48:58.834Z,6.25
2023-02-01T14:49:43.823Z,6.22
2023-02-01T14:50:33.319Z,6.22
2023-02-01T14:51:08.485Z,6.22
2023-02-01T14:51:41.433Z,6.21
2023-02-01T14:52:18.367Z,6.21
2023-02-01T14:53:14.921Z,6.20
2023-02-01T14:53:47.908Z,6.19
2023-02-01T14:54:20.628Z,6.16
2023-02-01T14:54:57.123Z,6.14
2023-02-01T14:56:09.526Z,6.12
2023-02-01T14:56:42.604Z,6.07
2023-02-01T14:57:21.640Z,6.03
2023-02-01T14:57:58.465Z,6.01
2023-02-01T14:58:53.675Z,6.00
2023-02-01T14:59:34.230Z,5.98
2023-02-01T15:00:20.874Z,5.95
2023-02-01T15:00:59.544Z,5.90
2023-02-01T15:01:34.850Z,5.85
2023-02-01T15:02:22.706Z,5.82
2023-02-01T15:03:01.829Z,5.78
2023-02-01T15:03:38.005Z,5.75
2023-02-01T15:04:22.965Z,5.72
2023-02-01T15:04:57.841Z,5.67
2023-02-01T15:05:35.012Z,5.65
2023-02-01T15:06:24.671Z,5.62
2023-02-01T15:07:08.131Z,5.60
2023-02-01T15:07:41.738Z,5.58
2023-02-01T15:08:27.511Z,5.57
2023-02-01T15:09:10.653Z,5.55
2023-02-01T15:09:48.909Z,5.53
2023-02-01T15:10:23.887Z,5.51
2023-02-01T15:10:59.724Z,5.50
2023-02-01T15:11:32.212Z,5.48
2023-02-01T15:12:16.263Z,5.45
2023-02-01T15:12:50.315Z,5.43
2023-02-01T15:13:26.174Z,5.43
2023-02-01T15:14:00.848Z,5.42
2023-02-01T15:14:36.130Z,5.42
2023-02-01T15:15:18.882Z,5.40
2023-02-01T15:16:11.802Z,5.39
2023-02-01T15:16:50.821Z,5.39
2023-02-01T15:17:34.705Z,5.39
2023-02-01T15:18:18.781Z,5.38
2023-02-01T15:18:51.921Z,5.38
2023-02-01T15:19:26.688Z,5.38
2023-02-01T15:20:12.599Z,5.38
2023-02-01T15:21:28.322Z,5.38
2023-02-01T15:21:53.507Z,5.38
2023-02-01T15:22:27.296Z,5.38
2023-02-01T15:23:02.895Z,5.38
2023-02-01T15:23:35.233Z,5.38
2023-02-01T15:24:24.553Z,5.39
2023-02-01T15:24:59.791Z,5.38
2023-02-01T15:25:36.926Z,5.38
2023-02-01T15:26:09.312Z,5.38
2023-02-01T15:26:41.928Z,5.38
2023-02-01T15:27:14.289Z,5.38
2023-02-01T15:27:46.609Z,5.38
2023-02-01T15:28:19.472Z,5.38
2023-02-01T15:28:51.756Z,5.39
2023-02-01T15:29:28.576Z,5.39
2023-02-01T15:30:09.984Z,5.38
2023-02-01T15:30:57.833Z,5.39
2023-02-01T15:31:38.571Z,5.40
2023-02-01T15:32:33.257Z,5.41
2023-02-01T15:33:14.999Z,5.41
2023-02-01T15:34:00.759Z,5.42
2023-02-01T15:34:50.814Z,5.43
2023-02-01T15:35:39.379Z,5.44
2023-02-01T15:36:18.679Z,5.45
2023-02-01T15:37:02.535Z,5.46
2023-02-01T15:37:35.771Z,5.47
2023-02-01T15:38:32.216Z,5.47
2023-02-01T15:39:24.207Z,5.47
2023-02-01T15:40:08.850Z,5.48
2023-02-01T15:41:05.952Z,5.49
2023-02-01T15:41:38.294Z,5.50
2023-02-01T15:42:20.483Z,5.51
2023-02-01T15:42:58.815Z,5.52